Rossburg, New York
Current Conditions -  °F | °C
As of 12:54 AM on Tuesday 21 Oct 2014 (Local Time) from KDSV Reporting Station
Light Rain Light Rain  
Wind Chill: 50°   Ceiling: 3600
Heat Index: 50°   Visibility: 10mi
Dew Point: 46°   Wind: 6mph
Humidity: 86%   Direction: 110°ESE
Pressure: 29.84"   Gusts: NA
Location:  42.5°N, 78.07°W
Report Text: KDSV 210454Z AUTO 11005KT 10SM -RA BKN036 OVC043 10/08 A2984 RMK AO2 RAB29 SLP115 P0000 T01000078 401390011
Loading
Personal Weather Stations






























Interactive Weather Map
Tropical Storm Tracking
New forecast layout! Learn more

10-Day Weather Forecast

Advertisements
Track Severe Weather on mobile